FlightSource - Aviation Photo Database

World Wide Airport Lookup


Search by ICAO
Or
Search by City

FlightSource.ca - Aviation Photo Database - Cochrane Airport Information
Airport Identification
Name: Cochrane Airport
ICAO: SCHR
IATA: LGR
Airport Location
City: Cochrane
Region: AI
Country: Chile
Continent: South America
Latitude: -47.2438
Longitude: -72.5884
Airport Information
Type: Medium Airport
Elevation: 643 Feet ASL
Flight Status: SCHR
More Info: SCHR
Airport Weather    
Metar: SCHR 281900Z 28012KT 9999 SCT040 BKN200 15/00 Q1006
TAF:


Advertisement